Time;durP1;ratioP1;P1;durP2;ratioP2;P2;SDS_P1;SDS_P2;PMS_P1;PMS_P2;Temp;Humidity;BMP_temperature;BMP_pressure;BME280_temperature;BME280_humidity;BME280_pressure;Samples;Min_cycle;Max_cycle;Signal;HPM_P1;HPM_P2
2021/11/29 00:01:29;;;;;;;11.75;7.00;;;4.20;99.90;;;;;;4934879;29;20397;-89
2021/11/29 00:03:55;;;;;;;13.48;6.35;;;4.20;99.90;;;;;;4934275;29;20241;-89
2021/11/29 00:06:21;;;;;;;13.32;7.38;;;4.20;99.90;;;;;;4934315;29;20598;-89
2021/11/29 00:08:48;;;;;;;13.38;6.93;;;4.10;99.90;;;;;;4934154;29;20520;-88
2021/11/29 00:11:14;;;;;;;14.48;7.63;;;4.00;99.90;;;;;;4934088;29;20027;-88
2021/11/29 00:13:40;;;;;;;13.32;7.07;;;3.90;99.90;;;;;;4933340;29;20031;-88
2021/11/29 00:16:07;;;;;;;17.15;8.05;;;3.80;99.90;;;;;;4934571;29;20031;-88
2021/11/29 00:18:34;;;;;;;17.17;8.05;;;3.80;99.90;;;;;;4934513;29;20032;-89
2021/11/29 00:21:00;;;;;;;15.07;8.38;;;3.70;99.90;;;;;;4932354;29;20040;-86
2021/11/29 00:23:26;;;;;;;16.40;8.55;;;3.70;99.90;;;;;;4933649;29;20433;-89
2021/11/29 00:25:51;;;;;;;17.58;9.38;;;3.60;99.90;;;;;;4934834;29;20039;-87
2021/11/29 00:28:17;;;;;;;15.63;9.13;;;3.60;99.90;;;;;;4934185;29;20027;-87
2021/11/29 00:30:44;;;;;;;18.05;9.43;;;3.60;99.90;;;;;;4933894;29;20063;-87
2021/11/29 00:33:10;;;;;;;18.13;9.50;;;3.50;99.90;;;;;;4933915;29;20107;-87
2021/11/29 00:35:37;;;;;;;18.63;9.68;;;3.50;99.90;;;;;;4933612;29;20035;-87
2021/11/29 00:38:04;;;;;;;19.85;9.27;;;3.50;99.90;;;;;;4932895;29;20062;-87
2021/11/29 00:40:31;;;;;;;21.25;10.25;;;3.50;99.90;;;;;;4932648;29;20147;-87
2021/11/29 00:42:56;;;;;;;20.10;10.02;;;3.40;99.90;;;;;;4933545;29;20024;-89
2021/11/29 00:45:22;;;;;;;19.42;9.95;;;3.40;99.90;;;;;;4933248;29;20082;-88
2021/11/29 00:47:49;;;;;;;19.80;9.70;;;3.40;99.90;;;;;;4933225;29;20027;-88
2021/11/29 00:50:16;;;;;;;19.35;8.90;;;3.30;99.90;;;;;;4932662;29;20110;-88
2021/11/29 00:52:42;;;;;;;20.02;9.32;;;3.30;99.90;;;;;;4936340;29;20023;-87
2021/11/29 00:55:10;;;;;;;15.73;8.90;;;3.30;99.90;;;;;;4936364;29;20024;-88
2021/11/29 00:57:37;;;;;;;16.63;8.60;;;3.20;99.90;;;;;;4935933;29;20058;-88
2021/11/29 01:00:07;;;;;;;19.67;8.73;;;3.20;99.90;;;;;;4936126;29;20043;-88
2021/11/29 01:02:33;;;;;;;17.42;8.88;;;3.20;99.90;;;;;;4936236;29;20255;-87
2021/11/29 01:04:59;;;;;;;16.27;8.80;;;3.20;99.90;;;;;;4936443;29;20278;-88
2021/11/29 01:07:25;;;;;;;22.02;10.05;;;3.10;99.90;;;;;;4936069;29;20663;-87
2021/11/29 01:09:51;;;;;;;23.88;10.35;;;3.10;99.90;;;;;;4935558;29;20031;-87
2021/11/29 01:12:17;;;;;;;22.58;10.25;;;3.10;99.90;;;;;;4935786;29;20058;-87
2021/11/29 01:14:43;;;;;;;18.25;9.23;;;3.10;99.90;;;;;;4935789;29;20424;-89
2021/11/29 01:17:10;;;;;;;15.93;9.63;;;3.00;99.90;;;;;;4936221;29;20020;-88
2021/11/29 01:19:37;;;;;;;17.70;9.57;;;3.00;99.90;;;;;;4936247;29;20034;-87
2021/11/29 01:22:03;;;;;;;19.60;9.43;;;3.00;99.90;;;;;;4934266;29;20055;-87
2021/11/29 01:24:29;;;;;;;22.00;9.48;;;3.00;99.90;;;;;;4934129;29;20063;-87
2021/11/29 01:26:55;;;;;;;20.35;9.93;;;3.00;99.90;;;;;;4935884;29;20051;-89
2021/11/29 01:29:21;;;;;;;15.85;9.63;;;2.90;99.90;;;;;;4934172;29;20024;-87
2021/11/29 01:31:47;;;;;;;19.10;9.05;;;2.90;99.90;;;;;;4935448;29;20027;-88
2021/11/29 01:34:13;;;;;;;19.75;9.30;;;2.90;99.90;;;;;;4934109;29;20027;-87
2021/11/29 01:36:40;;;;;;;13.50;8.30;;;2.90;99.90;;;;;;4935371;29;20111;-88
2021/11/29 01:39:07;;;;;;;16.95;9.05;;;2.90;99.90;;;;;;4933833;29;20103;-88
2021/11/29 01:41:32;;;;;;;19.92;8.98;;;2.90;99.90;;;;;;4935435;29;20220;-88
2021/11/29 01:43:58;;;;;;;16.55;9.80;;;2.80;99.90;;;;;;4933867;29;20146;-88
2021/11/29 01:46:24;;;;;;;19.90;10.15;;;2.80;99.90;;;;;;4935245;29;20024;-89
2021/11/29 01:48:51;;;;;;;16.83;9.48;;;2.70;99.90;;;;;;4935343;29;20030;-87
2021/11/29 01:51:16;;;;;;;18.83;9.07;;;2.70;99.90;;;;;;4933861;29;20386;-87
2021/11/29 01:53:42;;;;;;;18.23;8.95;;;2.70;99.90;;;;;;4934673;29;20035;-87
2021/11/29 01:56:08;;;;;;;14.23;8.55;;;2.70;99.90;;;;;;4934767;29;20519;-87
2021/11/29 01:58:36;;;;;;;16.10;8.25;;;2.60;99.90;;;;;;4934489;29;20050;-87
2021/11/29 02:01:06;;;;;;;15.02;7.97;;;2.60;99.90;;;;;;4934579;29;20032;-87
2021/11/29 02:03:32;;;;;;;14.45;8.32;;;2.60;99.90;;;;;;4933982;29;20036;-89
2021/11/29 02:05:58;;;;;;;15.93;8.18;;;2.60;99.90;;;;;;4934413;29;20035;-88
2021/11/29 02:08:24;;;;;;;16.38;8.40;;;2.60;99.90;;;;;;4934692;29;20532;-88
2021/11/29 02:10:50;;;;;;;15.77;8.90;;;2.60;99.90;;;;;;4934429;29;20087;-87
2021/11/29 02:13:18;;;;;;;16.27;8.50;;;2.60;99.90;;;;;;4934548;29;20024;-88
2021/11/29 02:15:50;;;;;;;14.68;9.07;;;2.60;99.90;;;;;;4934639;29;20027;-87
2021/11/29 02:18:17;;;;;;;13.60;8.48;;;2.70;99.90;;;;;;4934267;29;20027;-87
2021/11/29 02:21:03;;;;;;;14.73;8.38;;;2.70;99.90;;;;;;4934333;29;20049;-88
2021/11/29 02:23:29;;;;;;;14.70;8.65;;;2.80;99.90;;;;;;4933207;29;20047;-88
2021/11/29 02:25:55;;;;;;;15.73;8.45;;;2.80;99.90;;;;;;4934291;29;20090;-87
2021/11/29 02:28:22;;;;;;;17.60;8.27;;;2.90;99.90;;;;;;4934349;29;20046;-87
2021/11/29 02:30:48;;;;;;;14.63;7.93;;;2.90;99.90;;;;;;4934380;29;20050;-87
2021/11/29 02:33:14;;;;;;;16.83;9.77;;;3.00;99.90;;;;;;4934207;29;20145;-87
2021/11/29 02:35:40;;;;;;;18.77;10.38;;;3.00;99.90;;;;;;4934010;29;20473;-87
2021/11/29 02:38:06;;;;;;;17.35;10.45;;;3.10;99.90;;;;;;4934241;29;20035;-87
2021/11/29 02:40:33;;;;;;;19.58;9.95;;;3.20;99.90;;;;;;4934202;29;20043;-88
2021/11/29 02:42:59;;;;;;;18.70;10.90;;;3.20;99.90;;;;;;4933930;29;20043;-87
2021/11/29 02:45:25;;;;;;;19.35;10.65;;;3.30;99.90;;;;;;4932694;29;20043;-88
2021/11/29 02:47:51;;;;;;;19.23;11.38;;;3.30;99.90;;;;;;4932879;29;20035;-87
2021/11/29 02:50:17;;;;;;;17.08;10.45;;;3.40;99.90;;;;;;4934002;29;20027;-87
2021/11/29 02:52:43;;;;;;;16.70;10.48;;;3.40;99.90;;;;;;4932589;29;20031;-87
2021/11/29 02:55:09;;;;;;;18.02;10.00;;;3.40;99.90;;;;;;4933634;29;20046;-87
2021/11/29 02:57:35;;;;;;;16.63;10.13;;;3.40;99.90;;;;;;4933506;29;20043;-87
2021/11/29 03:00:03;;;;;;;16.17;9.60;;;3.40;99.90;;;;;;4932496;29;20047;-88
2021/11/29 03:02:31;;;;;;;19.80;9.45;;;3.40;99.90;;;;;;4933810;29;20016;-88
2021/11/29 03:04:58;;;;;;;15.88;9.63;;;3.30;99.90;;;;;;4932436;29;20034;-88
2021/11/29 03:07:24;;;;;;;20.52;10.55;;;3.30;99.90;;;;;;4933947;29;20335;-88
2021/11/29 03:09:50;;;;;;;18.58;10.70;;;3.30;99.90;;;;;;4933894;29;20107;-87
2021/11/29 03:12:16;;;;;;;16.45;10.32;;;3.40;99.90;;;;;;4933496;29;20102;-88
2021/11/29 03:14:44;;;;;;;16.60;10.20;;;3.40;99.90;;;;;;4933260;29;20051;-87
2021/11/29 03:17:11;;;;;;;20.90;10.88;;;3.50;99.90;;;;;;4933450;29;20035;-87
2021/11/29 03:19:39;;;;;;;22.30;11.65;;;3.60;99.90;;;;;;4933685;29;20082;-88
2021/11/29 03:22:08;;;;;;;21.42;12.82;;;3.60;99.90;;;;;;4933682;29;20027;-87
2021/11/29 03:24:35;;;;;;;25.77;11.93;;;3.60;99.90;;;;;;4933374;29;20039;-87
2021/11/29 03:27:01;;;;;;;21.70;12.00;;;3.70;99.90;;;;;;4933467;29;20049;-88
2021/11/29 03:29:27;;;;;;;24.00;13.07;;;3.80;99.90;;;;;;4931960;29;20382;-87
2021/11/29 03:31:55;;;;;;;28.23;13.27;;;3.80;99.90;;;;;;4932869;29;20026;-88
2021/11/29 03:34:22;;;;;;;19.45;12.13;;;3.90;99.90;;;;;;4932122;29;20408;-88
2021/11/29 03:36:49;;;;;;;21.60;12.02;;;3.90;99.90;;;;;;4932070;29;20176;-87
2021/11/29 03:39:22;;;;;;;23.88;12.82;;;3.90;99.90;;;;;;4933172;29;20099;-88
2021/11/29 03:41:49;;;;;;;20.23;11.88;;;4.00;99.90;;;;;;4932295;29;20171;-87
2021/11/29 03:44:16;;;;;;;25.08;12.52;;;4.00;99.90;;;;;;4933425;29;20035;-87
2021/11/29 03:46:44;;;;;;;25.50;12.93;;;4.10;99.90;;;;;;4931951;29;20023;-87
2021/11/29 03:49:10;;;;;;;20.73;11.05;;;4.20;99.90;;;;;;4933337;29;20028;-87
2021/11/29 03:51:36;;;;;;;19.67;12.40;;;4.20;99.90;;;;;;4933404;29;20035;-87
2021/11/29 03:54:02;;;;;;;20.63;11.93;;;4.20;99.90;;;;;;4933218;29;20489;-87
2021/11/29 03:56:27;;;;;;;20.83;12.23;;;4.20;99.90;;;;;;4933139;29;20031;-88
2021/11/29 03:58:53;;;;;;;21.67;12.65;;;4.30;99.90;;;;;;4933100;29;20072;-88
2021/11/29 04:01:19;;;;;;;23.17;13.13;;;4.40;99.90;;;;;;4933294;29;20023;-87
2021/11/29 04:03:46;;;;;;;21.05;13.15;;;4.40;99.90;;;;;;4933261;29;20055;-87
2021/11/29 04:06:12;;;;;;;20.92;12.38;;;4.40;99.90;;;;;;4932925;29;20040;-87
2021/11/29 04:08:38;;;;;;;19.83;11.70;;;4.50;99.90;;;;;;4933047;29;20111;-89
2021/11/29 04:11:04;;;;;;;20.58;11.93;;;4.50;99.90;;;;;;4933288;29;20026;-87
2021/11/29 04:13:31;;;;;;;18.05;10.55;;;4.60;99.90;;;;;;4933370;29;20031;-87
2021/11/29 04:15:56;;;;;;;14.40;8.85;;;4.60;99.90;;;;;;4932840;29;20024;-87
2021/11/29 04:18:22;;;;;;;15.75;7.60;;;4.60;99.90;;;;;;4933006;29;20412;-88
2021/11/29 04:20:49;;;;;;;13.38;8.18;;;4.70;99.90;;;;;;4932888;29;20118;-87
2021/11/29 04:23:15;;;;;;;14.35;6.97;;;4.80;99.90;;;;;;4932803;29;20361;-87
2021/11/29 04:25:52;;;;;;;16.35;8.75;;;4.80;99.90;;;;;;4934012;29;20038;-87
2021/11/29 04:28:18;;;;;;;14.50;9.23;;;4.90;99.90;;;;;;4935089;29;20473;-87
2021/11/29 04:30:45;;;;;;;16.40;9.32;;;4.80;99.90;;;;;;4936417;29;20028;-87
2021/11/29 04:33:11;;;;;;;21.98;9.68;;;4.80;99.90;;;;;;4934997;29;20051;-87
2021/11/29 04:35:36;;;;;;;16.90;8.77;;;4.80;99.90;;;;;;4936347;29;20066;-87
2021/11/29 04:38:03;;;;;;;14.10;8.35;;;4.80;99.90;;;;;;4936562;29;20035;-87
2021/11/29 04:40:29;;;;;;;14.82;8.38;;;4.80;99.90;;;;;;4934659;29;20130;-87
2021/11/29 04:42:55;;;;;;;13.55;8.27;;;4.80;99.90;;;;;;4936071;29;20107;-87
2021/11/29 04:45:20;;;;;;;14.00;7.80;;;4.80;99.90;;;;;;4936190;29;20027;-88
2021/11/29 04:47:46;;;;;;;12.93;7.97;;;4.70;99.90;;;;;;4935987;29;20500;-87
2021/11/29 04:50:12;;;;;;;14.02;8.27;;;4.80;99.90;;;;;;4934798;29;20043;-88
2021/11/29 04:52:38;;;;;;;18.88;8.50;;;4.80;99.90;;;;;;4936159;29;20071;-87
2021/11/29 04:55:06;;;;;;;13.23;9.25;;;4.70;99.90;;;;;;4934508;29;20031;-88
2021/11/29 04:57:31;;;;;;;16.00;8.80;;;4.80;99.90;;;;;;4934471;29;20056;-88
2021/11/29 04:59:57;;;;;;;16.27;8.63;;;4.80;99.90;;;;;;4936153;29;20423;-87
2021/11/29 05:02:23;;;;;;;12.50;8.10;;;4.80;99.90;;;;;;4936181;29;20038;-89
2021/11/29 05:04:50;;;;;;;16.08;9.13;;;4.80;99.90;;;;;;4935887;29;20030;-87
2021/11/29 05:07:16;;;;;;;12.88;8.75;;;4.90;99.90;;;;;;4935705;29;20059;-87
2021/11/29 05:09:43;;;;;;;16.92;8.27;;;4.90;99.90;;;;;;4935653;29;20032;-87
2021/11/29 05:12:13;;;;;;;14.85;8.40;;;4.90;99.90;;;;;;4934229;29;20027;-87
2021/11/29 05:14:39;;;;;;;16.40;8.90;;;4.80;99.90;;;;;;4935808;29;20035;-87
2021/11/29 05:17:04;;;;;;;14.65;7.95;;;4.80;99.90;;;;;;4935370;29;20107;-87
2021/11/29 05:19:30;;;;;;;14.82;7.82;;;4.90;99.90;;;;;;4935755;29;20035;-87
2021/11/29 05:21:56;;;;;;;15.35;8.13;;;4.90;99.90;;;;;;4935500;29;20490;-87
2021/11/29 05:24:22;;;;;;;16.38;8.38;;;4.90;99.90;;;;;;4933818;29;20034;-88
2021/11/29 05:26:48;;;;;;;12.18;7.55;;;4.90;99.90;;;;;;4935328;29;20024;-89
2021/11/29 05:29:15;;;;;;;13.30;7.85;;;4.90;99.90;;;;;;4935552;29;20415;-87
2021/11/29 05:31:42;;;;;;;16.13;7.75;;;5.00;99.90;;;;;;4935279;29;20024;-87
2021/11/29 05:34:08;;;;;;;13.93;8.38;;;5.00;99.90;;;;;;4935228;29;20027;-87
2021/11/29 05:36:34;;;;;;;14.55;8.35;;;4.90;99.90;;;;;;4933646;29;20035;-87
2021/11/29 05:38:59;;;;;;;13.90;7.35;;;4.90;99.90;;;;;;4934798;29;20028;-87
2021/11/29 05:41:25;;;;;;;18.67;9.00;;;4.80;99.90;;;;;;4935170;29;20460;-87
2021/11/29 05:43:52;;;;;;;13.90;7.57;;;4.70;99.90;;;;;;4933478;29;20485;-88
2021/11/29 05:46:22;;;;;;;15.50;7.82;;;4.70;99.90;;;;;;4934928;29;20087;-87
2021/11/29 05:48:51;;;;;;;13.23;7.10;;;4.70;99.90;;;;;;4934917;29;20026;-87
2021/11/29 05:51:18;;;;;;;13.35;7.68;;;4.50;99.90;;;;;;4933615;29;20031;-87
2021/11/29 05:53:44;;;;;;;17.15;7.60;;;4.50;99.90;;;;;;4934641;29;20058;-91
2021/11/29 05:56:10;;;;;;;17.02;8.23;;;4.50;99.90;;;;;;4934816;29;20056;-88
2021/11/29 05:58:36;;;;;;;13.15;7.13;;;4.50;99.90;;;;;;4933240;29;20078;-87
2021/11/29 06:01:03;;;;;;;16.23;6.75;;;4.50;99.90;;;;;;4934746;29;20032;-88
2021/11/29 06:03:30;;;;;;;15.52;7.65;;;4.40;99.90;;;;;;4934927;29;20032;-87
2021/11/29 06:05:56;;;;;;;11.25;7.15;;;4.40;99.90;;;;;;4934469;29;20020;-88
2021/11/29 06:08:23;;;;;;;12.85;6.88;;;4.40;99.90;;;;;;4934636;29;20393;-87
2021/11/29 06:10:48;;;;;;;10.85;7.00;;;4.30;99.90;;;;;;4934663;29;20019;-87
2021/11/29 06:13:15;;;;;;;13.50;7.03;;;4.30;99.90;;;;;;4934464;29;20040;-87
2021/11/29 06:15:41;;;;;;;12.90;7.57;;;4.30;99.90;;;;;;4935156;29;20038;-87
2021/11/29 06:18:08;;;;;;;12.15;6.63;;;4.30;99.90;;;;;;4934329;29;20509;-87
2021/11/29 06:20:34;;;;;;;10.70;5.85;;;4.30;99.90;;;;;;4934321;29;20031;-89
2021/11/29 06:23:00;;;;;;;13.02;5.45;;;4.30;99.90;;;;;;4934401;29;20028;-88
2021/11/29 06:25:27;;;;;;;9.57;4.20;;;4.30;99.90;;;;;;4932976;29;20155;-88
2021/11/29 06:27:57;;;;;;;10.85;4.28;;;4.40;99.90;;;;;;4934503;29;20023;-87
2021/11/29 06:30:24;;;;;;;10.85;3.70;;;4.40;99.90;;;;;;4932775;29;20121;-87
2021/11/29 06:32:50;;;;;;;12.13;3.85;;;4.40;99.90;;;;;;4934163;29;20057;-87
2021/11/29 06:35:16;;;;;;;8.43;3.60;;;4.50;99.90;;;;;;4934255;29;20020;-87
2021/11/29 06:37:47;;;;;;;8.48;3.55;;;4.50;99.90;;;;;;4934223;29;20453;-89
2021/11/29 06:40:13;;;;;;;9.15;3.38;;;4.60;99.90;;;;;;4933957;29;20046;-87
2021/11/29 06:42:39;;;;;;;11.45;4.03;;;4.60;99.90;;;;;;4934499;29;20036;-88
2021/11/29 06:45:05;;;;;;;10.65;3.47;;;4.60;99.90;;;;;;4932927;29;20034;-88
2021/11/29 06:47:30;;;;;;;9.18;4.28;;;4.60;99.90;;;;;;4934267;29;20102;-87
2021/11/29 06:49:56;;;;;;;10.05;4.35;;;4.50;99.90;;;;;;4933980;29;20128;-87
2021/11/29 06:52:22;;;;;;;9.38;4.63;;;4.60;99.90;;;;;;4934536;29;20031;-88
2021/11/29 06:54:50;;;;;;;14.18;5.57;;;4.50;99.90;;;;;;4934446;29;20388;-88
2021/11/29 06:57:17;;;;;;;92.13;45.70;;;4.50;99.90;;;;;;4933883;29;20050;-87
2021/11/29 06:59:43;;;;;;;28.88;20.48;;;4.50;99.90;;;;;;4932662;29;20097;-88
2021/11/29 07:02:11;;;;;;;19.38;10.00;;;4.50;99.90;;;;;;4934031;29;20020;-87
2021/11/29 07:04:37;;;;;;;17.85;6.22;;;4.50;99.90;;;;;;4934161;29;20496;-89
2021/11/29 07:07:03;;;;;;;14.18;6.88;;;4.40;99.90;;;;;;4934098;29;20103;-87
2021/11/29 07:09:29;;;;;;;12.32;6.43;;;4.40;99.90;;;;;;4933610;29;20055;-89
2021/11/29 07:11:54;;;;;;;12.35;5.65;;;4.40;99.90;;;;;;4932091;29;20047;-87
2021/11/29 07:14:21;;;;;;;23.10;12.00;;;4.40;99.90;;;;;;4934132;29;20107;-87
2021/11/29 07:16:49;;;;;;;16.65;9.52;;;4.30;99.90;;;;;;4933549;29;20075;-86
2021/11/29 07:19:16;;;;;;;20.10;10.15;;;4.20;99.90;;;;;;4933634;29;20039;-87
2021/11/29 07:21:43;;;;;;;13.52;6.88;;;4.20;99.90;;;;;;4933673;29;20055;-87
2021/11/29 07:24:09;;;;;;;15.98;8.70;;;4.20;99.90;;;;;;4933349;29;20370;-86
2021/11/29 07:26:40;;;;;;;13.30;7.20;;;4.20;99.90;;;;;;4932147;29;20280;-87
2021/11/29 07:29:06;;;;;;;15.40;7.05;;;4.20;99.90;;;;;;4934115;29;20381;-86
2021/11/29 07:31:33;;;;;;;15.60;6.90;;;4.30;99.90;;;;;;4933312;29;20031;-86
2021/11/29 07:33:59;;;;;;;14.95;6.30;;;4.30;99.90;;;;;;4933548;29;20035;-87
2021/11/29 07:36:24;;;;;;;12.68;6.32;;;4.30;99.90;;;;;;4933246;29;20094;-87
2021/11/29 07:38:50;;;;;;;15.55;7.13;;;4.20;99.90;;;;;;4933599;29;20094;-89
2021/11/29 07:41:16;;;;;;;14.60;6.57;;;4.20;99.90;;;;;;4932503;29;20035;-87
2021/11/29 07:43:43;;;;;;;16.20;7.75;;;4.20;99.90;;;;;;4932312;29;20090;-87
2021/11/29 07:46:08;;;;;;;15.30;7.32;;;4.20;99.90;;;;;;4933074;29;20482;-87
2021/11/29 07:48:34;;;;;;;17.10;7.80;;;4.20;99.90;;;;;;4932053;29;20039;-87
2021/11/29 07:51:00;;;;;;;14.30;7.15;;;4.20;99.90;;;;;;4933734;29;20020;-87
2021/11/29 07:53:29;;;;;;;17.40;9.27;;;4.20;99.90;;;;;;4932094;29;20184;-87
2021/11/29 07:55:55;;;;;;;20.67;10.23;;;4.30;99.90;;;;;;4933500;29;20024;-88
2021/11/29 07:58:21;;;;;;;17.02;8.95;;;4.50;99.90;;;;;;4931979;29;20056;-87
2021/11/29 08:00:48;;;;;;;13.90;8.48;;;4.60;99.90;;;;;;4935617;29;20032;-87
2021/11/29 08:03:14;;;;;;;15.52;8.43;;;4.60;99.90;;;;;;4937355;29;20019;-87
2021/11/29 08:05:42;;;;;;;13.10;8.75;;;4.70;99.90;;;;;;4937436;29;20434;-87
2021/11/29 08:08:09;;;;;;;12.63;8.02;;;4.80;99.90;;;;;;4937526;29;20103;-87
2021/11/29 08:10:37;;;;;;;13.52;8.05;;;4.90;99.90;;;;;;4937527;29;20103;-87
2021/11/29 08:13:05;;;;;;;10.20;7.88;;;4.90;99.90;;;;;;4937599;29;20038;-87
2021/11/29 08:15:31;;;;;;;11.07;7.57;;;4.90;99.90;;;;;;4936129;29;20419;-87
2021/11/29 08:17:56;;;;;;;13.68;7.90;;;5.00;99.90;;;;;;4935780;29;20397;-87
2021/11/29 08:20:25;;;;;;;12.15;7.00;;;5.00;99.90;;;;;;4935806;29;20043;-87
2021/11/29 08:22:55;;;;;;;10.95;6.65;;;5.10;99.90;;;;;;4937148;29;20024;-87
2021/11/29 08:25:22;;;;;;;15.85;7.90;;;5.00;99.90;;;;;;4936888;29;20024;-87
2021/11/29 08:27:49;;;;;;;12.32;7.25;;;5.00;99.90;;;;;;4937540;29;20020;-87
2021/11/29 08:30:17;;;;;;;12.30;7.88;;;4.90;99.90;;;;;;4937348;29;20038;-87
2021/11/29 08:32:43;;;;;;;16.27;8.73;;;4.90;99.90;;;;;;4937451;29;20023;-86
2021/11/29 08:35:14;;;;;;;12.88;7.60;;;4.80;99.90;;;;;;4938277;29;20433;-87
2021/11/29 08:37:45;;;;;;;13.18;8.07;;;4.80;99.90;;;;;;4938411;29;20099;-87
2021/11/29 08:40:12;;;;;;;15.10;8.40;;;4.80;99.90;;;;;;4937691;29;20098;-87
2021/11/29 08:42:37;;;;;;;15.18;8.70;;;4.80;99.90;;;;;;4936096;29;20090;-87
2021/11/29 08:45:04;;;;;;;13.18;8.70;;;4.90;99.90;;;;;;4937332;29;20036;-88
2021/11/29 08:47:30;;;;;;;17.20;8.55;;;4.90;99.90;;;;;;4937260;29;20031;-87
2021/11/29 08:49:56;;;;;;;14.93;9.00;;;4.90;99.90;;;;;;4938019;29;20028;-88
2021/11/29 08:52:23;;;;;;;18.13;9.98;;;5.00;99.90;;;;;;4937150;29;20028;-87
2021/11/29 08:54:49;;;;;;;15.25;9.65;;;5.00;99.90;;;;;;4936823;29;20550;-87
2021/11/29 08:57:16;;;;;;;18.73;10.40;;;5.00;99.90;;;;;;4936998;29;20045;-85
2021/11/29 08:59:41;;;;;;;20.55;10.52;;;5.00;99.90;;;;;;4937029;29;20036;-87
2021/11/29 09:02:07;;;;;;;14.85;10.57;;;5.10;99.90;;;;;;4939098;29;20031;-87
2021/11/29 09:04:37;;;;;;;15.55;9.27;;;5.20;99.90;;;;;;4937678;29;20070;-86
2021/11/29 09:07:03;;;;;;;13.15;8.85;;;5.20;99.90;;;;;;4937484;29;20027;-87
2021/11/29 09:09:31;;;;;;;12.02;8.13;;;5.20;99.90;;;;;;4936621;29;20130;-87
2021/11/29 09:11:59;;;;;;;13.35;8.10;;;5.30;99.90;;;;;;4935987;29;20354;-87
2021/11/29 09:14:24;;;;;;;12.15;7.85;;;5.30;99.90;;;;;;4936000;29;20064;-88
2021/11/29 09:16:50;;;;;;;16.00;8.15;;;5.40;99.90;;;;;;4936896;29;20032;-89
2021/11/29 09:19:16;;;;;;;12.95;7.78;;;5.40;99.90;;;;;;4936281;29;20548;-87
2021/11/29 09:21:42;;;;;;;11.63;7.50;;;5.50;99.90;;;;;;4936595;29;20027;-87
2021/11/29 09:24:08;;;;;;;13.18;7.55;;;5.60;99.90;;;;;;4936206;29;20432;-88
2021/11/29 09:26:34;;;;;;;13.27;7.80;;;5.60;99.90;;;;;;4936550;29;20404;-88
2021/11/29 09:29:00;;;;;;;15.18;8.32;;;5.50;99.90;;;;;;4936779;29;20023;-89
2021/11/29 09:31:26;;;;;;;12.05;8.15;;;5.50;99.90;;;;;;4936245;29;20106;-87
2021/11/29 09:33:53;;;;;;;11.85;7.22;;;5.60;99.90;;;;;;4936098;29;20024;-88
2021/11/29 09:36:18;;;;;;;11.65;7.97;;;5.60;99.90;;;;;;4936493;29;20035;-87
2021/11/29 09:38:45;;;;;;;11.27;7.50;;;5.60;99.90;;;;;;4936072;29;20102;-87
2021/11/29 09:41:11;;;;;;;13.73;8.38;;;5.70;99.90;;;;;;4918886;29;20438;-88
2021/11/29 09:43:39;;;;;;;10.68;7.68;;;5.80;99.90;;;;;;4934774;29;20055;-88
2021/11/29 09:46:06;;;;;;;13.23;8.27;;;6.00;99.90;;;;;;4936274;29;20034;-88
2021/11/29 09:48:33;;;;;;;15.02;7.60;;;6.10;99.90;;;;;;4936344;29;20031;-88
2021/11/29 09:50:59;;;;;;;10.15;6.97;;;6.30;99.90;;;;;;4934139;29;20493;-88
2021/11/29 09:53:30;;;;;;;9.82;6.70;;;6.40;99.90;;;;;;4935595;29;20537;-89
2021/11/29 09:55:56;;;;;;;8.68;6.35;;;6.40;99.90;;;;;;4935834;29;20024;-87
2021/11/29 09:58:22;;;;;;;9.00;6.45;;;6.30;99.90;;;;;;4934536;29;20098;-88
2021/11/29 10:00:55;;;;;;;9.95;6.15;;;6.30;99.90;;;;;;4935991;29;20509;-88
2021/11/29 10:03:23;;;;;;;11.17;6.17;;;6.30;99.90;;;;;;4939407;29;20028;-87
2021/11/29 10:05:50;;;;;;;10.30;6.25;;;6.30;99.90;;;;;;4938861;29;20054;-88
2021/11/29 10:08:33;;;;;;;10.13;6.22;;;6.30;99.90;;;;;;4938811;29;20028;-93
2021/11/29 10:11:06;;;;;;;10.20;6.30;;;6.40;99.90;;;;;;4938621;29;20028;-87
2021/11/29 10:13:54;;;;;;;10.57;5.97;;;6.50;99.90;;;;;;4936598;29;20028;-87
2021/11/29 10:16:45;;;;;;;10.30;6.53;;;6.60;99.90;;;;;;4936961;29;20032;-87
2021/11/29 10:19:36;;;;;;;11.90;6.47;;;6.70;99.90;;;;;;4936450;29;20408;-87
2021/11/29 10:22:14;;;;;;;9.60;5.30;;;6.80;99.90;;;;;;4935734;29;20555;-86
2021/11/29 10:24:40;;;;;;;6.95;5.38;;;6.80;99.90;;;;;;4939018;29;20039;-88
2021/11/29 10:27:06;;;;;;;6.10;4.63;;;6.70;99.90;;;;;;4934868;29;20038;-88
2021/11/29 10:29:32;;;;;;;6.00;4.50;;;6.50;99.90;;;;;;4934087;29;20206;-87
2021/11/29 10:31:58;;;;;;;6.55;4.55;;;6.50;99.90;;;;;;4934921;29;20059;-88
2021/11/29 10:34:30;;;;;;;6.18;4.22;;;6.50;99.90;;;;;;4935170;29;20027;-89
2021/11/29 10:37:06;;;;;;;6.50;4.30;;;6.50;99.90;;;;;;4938783;29;20095;-88
2021/11/29 10:39:42;;;;;;;6.13;4.13;;;6.50;99.90;;;;;;4939061;29;20059;-88
2021/11/29 10:42:12;;;;;;;6.63;4.60;;;6.40;99.90;;;;;;4935082;29;20066;-87
2021/11/29 10:44:41;;;;;;;5.22;4.03;;;6.40;99.90;;;;;;4934437;29;20020;-87
2021/11/29 10:47:13;;;;;;;5.20;4.10;;;6.60;99.90;;;;;;4934514;29;20038;-88
2021/11/29 10:49:42;;;;;;;5.68;3.92;;;6.60;99.90;;;;;;4934731;29;20043;-87
2021/11/29 10:52:10;;;;;;;4.10;3.40;;;6.70;99.90;;;;;;4934710;29;20485;-86
2021/11/29 10:54:39;;;;;;;5.03;3.95;;;6.80;99.90;;;;;;4934505;29;20512;-87
2021/11/29 10:57:10;;;;;;;5.72;3.92;;;6.90;99.90;;;;;;4934434;29;20090;-88
2021/11/29 10:59:39;;;;;;;5.70;4.10;;;7.00;99.90;;;;;;4933288;29;20066;-87
2021/11/29 11:02:10;;;;;;;7.97;4.32;;;7.10;99.90;;;;;;4934530;29;20027;-87
2021/11/29 11:04:39;;;;;;;5.63;3.58;;;7.10;99.90;;;;;;4934215;29;20110;-87
2021/11/29 11:07:15;;;;;;;5.45;3.85;;;7.20;99.90;;;;;;4933920;29;20027;-88
2021/11/29 11:09:51;;;;;;;4.18;3.08;;;7.30;99.90;;;;;;4934279;29;20370;-87
2021/11/29 11:12:16;;;;;;;4.85;3.03;;;7.40;99.90;;;;;;4933484;29;20577;-87
2021/11/29 11:14:47;;;;;;;3.63;2.70;;;7.40;99.90;;;;;;4934186;29;20024;-88
2021/11/29 11:17:14;;;;;;;5.45;3.10;;;7.50;99.90;;;;;;4934290;29;20027;-87
2021/11/29 11:19:46;;;;;;;3.17;2.50;;;7.50;99.90;;;;;;4933857;29;20039;-87
2021/11/29 11:22:19;;;;;;;3.38;2.03;;;7.60;99.90;;;;;;4933165;29;20067;-89
2021/11/29 11:24:50;;;;;;;3.83;2.23;;;7.60;99.90;;;;;;4934650;29;20020;-88
2021/11/29 11:27:16;;;;;;;3.67;2.50;;;7.60;99.90;;;;;;4934340;29;20275;-88
2021/11/29 11:29:59;;;;;;;4.82;2.80;;;7.60;99.90;;;;;;4934408;29;20031;-87
2021/11/29 11:32:29;;;;;;;5.60;3.67;;;7.60;99.90;;;;;;4934299;29;20559;-87
2021/11/29 11:35:16;;;;;;;5.13;4.18;;;7.70;99.90;;;;;;4928507;29;20043;-88
2021/11/29 11:37:54;;;;;;;5.55;3.83;;;7.70;99.90;;;;;;4914648;29;20036;-87
2021/11/29 11:40:22;;;;;;;6.32;3.78;;;7.60;99.90;;;;;;4915466;29;20034;-88
2021/11/29 11:42:50;;;;;;;5.40;4.28;;;7.50;99.90;;;;;;4914952;29;20024;-87
2021/11/29 11:45:18;;;;;;;7.80;5.38;;;7.60;99.90;;;;;;4913244;29;20047;-88
2021/11/29 11:47:46;;;;;;;9.77;6.18;;;7.80;99.90;;;;;;4914639;29;20029;-88
2021/11/29 11:50:15;;;;;;;13.10;8.80;;;8.00;99.90;;;;;;4914776;29;20489;-88
2021/11/29 11:52:42;;;;;;;13.50;10.15;;;8.00;99.90;;;;;;4925488;29;20135;-87
2021/11/29 11:55:10;;;;;;;17.85;10.70;;;7.90;99.90;;;;;;4935196;29;20087;-88
2021/11/29 11:57:36;;;;;;;13.55;11.43;;;7.70;99.90;;;;;;4934063;29;20055;-87
2021/11/29 12:00:14;;;;;;;13.73;11.48;;;7.40;99.90;;;;;;4933886;29;20043;-88
2021/11/29 12:02:43;;;;;;;14.32;10.52;;;7.40;99.90;;;;;;4934542;29;20099;-87
2021/11/29 12:05:13;;;;;;;15.10;10.18;;;7.50;99.90;;;;;;4933899;29;20032;-88
2021/11/29 12:07:40;;;;;;;14.52;10.10;;;7.50;99.90;;;;;;4941599;29;20024;-87
2021/11/29 12:10:28;;;;;;;16.85;10.52;;;7.20;99.90;;;;;;4942425;29;20149;-87
2021/11/29 12:12:57;;;;;;;13.63;9.55;;;7.00;99.90;;;;;;4943086;29;20087;-89
2021/11/29 12:15:42;;;;;;;21.02;9.63;;;7.10;99.90;;;;;;4943026;29;20110;-89
2021/11/29 12:18:10;;;;;;;17.08;10.18;;;7.20;99.90;;;;;;4943329;29;20024;-87
2021/11/29 12:20:36;;;;;;;15.95;9.73;;;7.10;99.90;;;;;;4944351;29;20039;-88
2021/11/29 12:23:03;;;;;;;16.35;9.43;;;6.90;99.90;;;;;;4946085;29;20031;-89
2021/11/29 12:25:28;;;;;;;15.07;9.13;;;7.00;99.90;;;;;;4954575;28;20044;-88
2021/11/29 12:28:04;;;;;;;11.80;9.00;;;7.10;99.90;;;;;;4957794;28;20036;-88
2021/11/29 12:30:43;;;;;;;12.73;8.85;;;7.20;99.90;;;;;;4957316;28;20055;-88
2021/11/29 12:33:13;;;;;;;14.07;8.98;;;7.20;99.90;;;;;;4957950;28;20051;-87
2021/11/29 12:36:01;;;;;;;13.68;8.65;;;7.40;99.90;;;;;;4957931;28;20028;-87
2021/11/29 12:38:46;;;;;;;13.60;7.55;;;7.60;99.90;;;;;;4955845;28;20028;-88
2021/11/29 12:41:12;;;;;;;11.32;7.93;;;8.00;99.90;;;;;;4956919;28;20032;-88
2021/11/29 12:43:49;;;;;;;10.90;7.70;;;8.30;99.90;;;;;;4956577;29;20020;-88
2021/11/29 12:46:19;;;;;;;12.93;7.65;;;8.60;99.90;;;;;;4957558;28;20047;-89
2021/11/29 12:48:45;;;;;;;11.70;7.93;;;8.80;99.90;;;;;;4960763;29;20020;-89